Time;durP1;ratioP1;P1;durP2;ratioP2;P2;SDS_P1;SDS_P2;PMS_P1;PMS_P2;Temp;Humidity;BMP_temperature;BMP_pressure;BME280_temperature;BME280_humidity;BME280_pressure;Samples;Min_cycle;Max_cycle;Signal;HPM_P1;HPM_P2
2022/06/30 00:03:19;;;;;;;2.38;1.58;;;24.80;67.90;;;23.89;53.72;99679.41;10162196;28;96727;-87
2022/06/30 00:08:25;;;;;;;2.58;1.80;;;24.80;67.70;;;23.81;53.47;99693.47;10158982;28;97718;-87
2022/06/30 00:13:28;;;;;;;2.20;1.50;;;24.70;67.30;;;23.81;53.35;99685.34;10155883;28;97482;-87
2022/06/30 00:18:32;;;;;;;2.85;1.95;;;24.70;67.40;;;23.82;53.54;99673.44;10167183;28;96584;-87
2022/06/30 00:23:35;;;;;;;2.60;1.73;;;24.70;67.70;;;23.77;53.36;99677.75;10168150;28;96725;-86
2022/06/30 00:28:38;;;;;;;3.35;1.70;;;24.70;67.20;;;23.77;53.38;99675.03;10172735;28;98141;-86
2022/06/30 00:33:41;;;;;;;2.42;1.80;;;24.70;67.30;;;23.73;53.52;99682.06;10168413;28;96698;-87
2022/06/30 00:38:44;;;;;;;3.85;1.92;;;24.60;67.80;;;23.66;54.07;99686.94;10187211;28;97359;-87
2022/06/30 00:43:48;;;;;;;2.75;1.83;;;24.50;68.30;;;23.56;54.16;99681.44;10210525;28;97304;-88
2022/06/30 00:48:52;;;;;;;2.60;1.80;;;24.40;68.40;;;23.42;54.76;99685.72;10180509;28;97614;-89
2022/06/30 00:54:03;;;;;;;1.90;1.45;;;24.30;68.90;;;23.32;55.48;99685.69;10178261;28;97306;-88
2022/06/30 00:59:09;;;;;;;4.93;1.83;;;24.20;69.50;;;23.21;55.75;99680.22;10182198;28;96765;-89
2022/06/30 01:04:16;;;;;;;3.85;2.00;;;24.10;70.00;;;23.16;55.35;99682.91;10190956;28;97503;-89
2022/06/30 01:14:42;;;;;;;2.80;2.00;;;24.00;70.10;;;23.09;55.79;99679.63;10191443;28;96719;-89
2022/06/30 01:19:56;;;;;;;2.90;1.85;;;24.00;70.20;;;23.06;55.78;99661.16;10189076;28;98670;-89
2022/06/30 01:24:59;;;;;;;4.38;1.80;;;23.90;70.20;;;23.03;55.55;99656.28;10177811;28;96620;-88
2022/06/30 01:30:03;;;;;;;2.75;1.70;;;23.90;70.10;;;23.01;55.16;99666.53;10190277;28;97605;-89
2022/06/30 01:35:07;;;;;;;2.00;1.52;;;23.90;69.70;;;23.00;54.78;99678.47;10175804;28;96589;-88
2022/06/30 01:40:11;;;;;;;2.58;1.45;;;23.90;69.30;;;23.02;54.98;99680.91;10206578;28;96705;-88
2022/06/30 01:45:14;;;;;;;2.88;1.48;;;24.00;69.40;;;23.01;54.86;99676.56;10179357;28;97378;-88
2022/06/30 01:50:27;;;;;;;4.32;1.48;;;23.90;69.50;;;22.99;54.14;99687.69;10171473;28;97649;-88
2022/06/30 01:55:31;;;;;;;2.67;1.55;;;23.90;69.10;;;22.98;54.30;99680.63;10191172;28;97476;-88
2022/06/30 02:00:34;;;;;;;1.70;1.35;;;23.90;69.00;;;23.00;54.05;99683.88;10184065;28;97023;-88
2022/06/30 02:05:37;;;;;;;2.17;1.40;;;23.90;68.80;;;23.00;54.34;99688.50;10186495;28;97566;-88
2022/06/30 02:10:40;;;;;;;1.95;1.30;;;23.90;68.90;;;22.98;54.76;99686.06;10207607;28;97260;-88
2022/06/30 02:15:43;;;;;;;2.10;1.50;;;23.90;68.80;;;22.92;54.91;99678.97;10168800;28;96673;-89
2022/06/30 02:20:46;;;;;;;3.10;1.65;;;23.90;69.00;;;22.88;55.52;99691.41;10179803;28;97155;-88
2022/06/30 02:25:50;;;;;;;3.33;1.60;;;23.90;70.30;;;22.74;55.55;99690.19;10213444;28;97522;-88
2022/06/30 02:30:56;;;;;;;2.60;1.80;;;23.70;70.20;;;22.53;56.17;99702.75;10200107;28;97468;-89
2022/06/30 02:35:59;;;;;;;2.20;1.40;;;23.60;70.80;;;22.42;56.49;99699.94;10190924;28;96770;-88
2022/06/30 02:41:01;;;;;;;2.80;1.70;;;23.40;70.40;;;22.35;56.43;99695.81;10206093;28;98765;-88
2022/06/30 02:46:04;;;;;;;4.60;1.90;;;23.30;71.10;;;22.25;56.92;99691.16;10189853;28;96652;-89
2022/06/30 02:51:07;;;;;;;1.90;1.35;;;23.20;71.50;;;22.15;57.24;99691.06;10204349;28;98207;-89
2022/06/30 02:56:11;;;;;;;2.85;1.60;;;23.10;71.30;;;22.03;56.96;99691.19;10166276;28;96786;-89
2022/06/30 03:01:19;;;;;;;4.57;2.00;;;23.00;71.60;;;21.94;57.46;99687.28;10185327;28;97564;-89
2022/06/30 03:06:23;;;;;;;2.30;1.67;;;22.90;72.10;;;21.84;57.59;99708.84;10166694;28;96650;-89
2022/06/30 03:11:26;;;;;;;2.40;1.70;;;22.80;72.60;;;21.76;57.91;99706.56;10189311;28;97337;-89
2022/06/30 03:16:49;;;;;;;3.50;1.85;;;22.70;72.70;;;21.67;58.70;99713.50;10182239;28;97554;-89
2022/06/30 03:21:55;;;;;;;3.60;1.77;;;22.60;73.50;;;21.59;59.02;99728.25;10202851;28;97601;-88
2022/06/30 03:26:58;;;;;;;2.33;1.65;;;22.50;73.60;;;21.52;59.25;99728.44;10182777;28;98492;-92
2022/06/30 03:32:01;;;;;;;3.88;1.65;;;22.50;74.20;;;21.44;60.23;99728.88;10201504;28;96625;-92
2022/06/30 03:37:04;;;;;;;3.67;1.95;;;22.40;74.90;;;21.41;60.40;99737.50;10199205;28;97349;-92
2022/06/30 03:42:08;;;;;;;2.60;1.60;;;22.30;75.30;;;21.44;61.39;99736.19;10205919;28;97682;-93
2022/06/30 03:47:11;;;;;;;2.30;1.63;;;22.40;76.70;;;21.44;61.35;99742.41;10176609;28;96810;-92
2022/06/30 03:52:14;;;;;;;3.70;1.83;;;22.30;76.00;;;21.47;61.44;99744.63;10205164;28;98242;-91
2022/06/30 03:57:18;;;;;;;3.13;1.95;;;22.30;76.20;;;21.54;62.31;99739.84;10201812;28;96559;-92
2022/06/30 04:02:21;;;;;;;2.20;1.73;;;22.40;77.30;;;21.65;61.70;99748.88;10192948;28;97141;-91
2022/06/30 04:07:24;;;;;;;2.80;1.75;;;22.50;76.80;;;21.76;61.85;99741.72;10184784;28;98701;-85
2022/06/30 04:12:27;;;;;;;3.28;1.60;;;22.60;77.60;;;21.85;62.53;99756.44;10193773;28;97309;-88
2022/06/30 04:17:33;;;;;;;3.08;1.60;;;22.70;78.40;;;21.97;62.70;99759.00;10205090;28;96535;-86
2022/06/30 04:22:36;;;;;;;5.70;1.60;;;22.80;78.50;;;22.12;63.32;99748.38;10174231;28;97415;-86
2022/06/30 04:27:44;;;;;;;2.30;1.60;;;22.90;78.70;;;22.30;62.88;99752.63;10202454;28;97324;-87
2022/06/30 04:32:47;;;;;;;2.15;1.50;;;23.10;78.60;;;22.45;62.16;99741.94;10169812;28;97512;-87
2022/06/30 04:37:50;;;;;;;2.13;1.42;;;23.20;78.30;;;22.60;61.60;99747.47;10199937;28;96827;-86
2022/06/30 04:42:53;;;;;;;2.17;1.67;;;23.40;78.30;;;22.79;61.92;99752.50;10190272;28;97022;-87
2022/06/30 04:47:56;;;;;;;3.13;1.45;;;23.50;78.50;;;22.97;62.00;99738.63;10186306;28;98098;-86
2022/06/30 04:52:59;;;;;;;1.88;1.50;;;23.70;78.90;;;23.16;61.67;99742.53;10192501;28;97132;-86
2022/06/30 04:58:03;;;;;;;1.80;1.30;;;23.90;78.50;;;23.34;61.15;99744.00;10207808;28;97294;-86
2022/06/30 05:03:05;;;;;;;2.53;1.67;;;24.10;78.30;;;23.51;60.71;99743.81;10192180;28;96680;-86
2022/06/30 05:08:08;;;;;;;2.80;1.40;;;24.30;78.60;;;23.69;60.49;99745.25;10191487;28;97073;-85
2022/06/30 05:13:11;;;;;;;2.50;1.50;;;24.40;77.90;;;23.83;59.07;99740.16;10173970;28;98500;-85
2022/06/30 05:18:15;;;;;;;6.15;2.45;;;24.60;77.10;;;24.00;58.21;99730.72;10179645;28;97514;-88
2022/06/30 05:23:18;;;;;;;6.28;2.42;;;24.70;76.30;;;24.23;58.64;99734.84;10184511;28;98570;-85
2022/06/30 05:28:21;;;;;;;5.03;2.42;;;24.90;76.50;;;24.45;58.34;99731.91;10187539;28;98329;-85
2022/06/30 05:33:24;;;;;;;3.03;1.80;;;25.20;76.50;;;24.68;56.46;99724.31;10195926;28;96776;-85
2022/06/30 05:38:28;;;;;;;3.13;1.70;;;25.40;75.70;;;24.93;54.99;99739.78;10235954;28;96558;-85
2022/06/30 05:43:30;;;;;;;2.17;1.30;;;25.70;74.40;;;25.15;51.59;99753.91;10209751;28;98624;-85
2022/06/30 05:48:33;;;;;;;1.67;1.20;;;25.90;71.60;;;25.36;52.12;99738.34;10192332;28;96562;-85
2022/06/30 05:53:37;;;;;;;1.85;1.33;;;26.10;71.40;;;25.58;49.48;99738.03;10192676;28;96726;-85
2022/06/30 05:58:41;;;;;;;2.28;1.35;;;26.30;69.90;;;25.86;48.32;99736.59;10190789;28;96645;-85
2022/06/30 06:03:44;;;;;;;1.85;1.35;;;26.60;68.80;;;26.14;46.63;99735.84;10207099;28;96529;-86
2022/06/30 06:08:47;;;;;;;2.35;1.33;;;26.90;67.50;;;26.38;46.58;99741.41;10206667;28;97460;-85
2022/06/30 06:13:50;;;;;;;2.10;1.52;;;27.10;66.80;;;26.60;46.30;99737.47;10207092;28;96913;-85
2022/06/30 06:18:53;;;;;;;2.08;1.27;;;27.30;65.80;;;26.85;44.17;99741.91;10189055;28;97227;-85
2022/06/30 06:23:56;;;;;;;2.08;1.50;;;27.60;64.50;;;27.06;44.21;99734.38;10189093;28;96711;-85
2022/06/30 06:29:11;;;;;;;1.88;1.33;;;27.80;63.90;;;27.26;42.46;99736.09;10208309;28;96613;-84
2022/06/30 06:34:14;;;;;;;3.80;1.33;;;28.00;62.30;;;27.46;43.19;99739.38;10201158;28;96723;-86
2022/06/30 06:39:16;;;;;;;2.35;1.20;;;28.20;62.50;;;27.65;41.64;99735.88;10143312;28;97031;-85
2022/06/30 06:44:19;;;;;;;2.40;1.13;;;28.40;61.60;;;27.83;40.67;99732.44;10208788;28;97739;-85
2022/06/30 06:49:23;;;;;;;1.52;1.20;;;28.60;60.60;;;28.02;38.99;99732.44;10200514;28;98172;-85
2022/06/30 06:54:26;;;;;;;2.13;1.27;;;28.80;58.80;;;28.24;39.88;99720.91;10183998;28;97522;-85
2022/06/30 06:59:29;;;;;;;2.10;1.40;;;29.00;59.00;;;28.44;36.96;99719.81;10177029;28;98264;-84
2022/06/30 07:04:32;;;;;;;1.80;1.30;;;29.20;56.80;;;28.67;37.17;99715.31;10190851;28;98029;-84
2022/06/30 07:09:36;;;;;;;2.05;1.30;;;29.40;56.50;;;28.86;36.76;99718.84;10208265;28;96992;-85
2022/06/30 07:14:39;;;;;;;2.42;1.58;;;29.70;55.80;;;29.06;36.29;99712.22;10210419;28;96639;-84
2022/06/30 07:19:42;;;;;;;1.40;1.23;;;29.80;55.20;;;29.23;36.50;99708.88;10229908;28;96622;-85
2022/06/30 07:24:45;;;;;;;1.95;1.50;;;30.00;55.20;;;29.39;36.47;99701.16;10217148;28;96794;-85
2022/06/30 07:29:48;;;;;;;2.20;1.50;;;30.10;55.10;;;29.54;36.24;99703.63;10232839;28;98170;-85
2022/06/30 07:34:54;;;;;;;2.35;1.40;;;30.30;54.90;;;29.70;36.30;99696.72;10223303;28;96670;-86
2022/06/30 07:39:57;;;;;;;1.83;1.30;;;30.50;54.60;;;29.91;35.96;99694.34;10196513;28;97853;-85
2022/06/30 07:45:00;;;;;;;5.85;1.67;;;30.70;54.50;;;30.12;35.13;99689.25;10224306;28;98725;-84
2022/06/30 07:50:03;;;;;;;3.25;1.55;;;30.90;53.80;;;30.29;34.38;99685.84;10204818;28;97658;-84
2022/06/30 07:55:07;;;;;;;2.22;1.25;;;31.00;52.90;;;30.48;33.66;99680.97;10201023;28;96889;-85
2022/06/30 08:00:11;;;;;;;3.03;1.55;;;31.20;52.60;;;30.67;33.65;99672.53;10194034;28;96718;-85
2022/06/30 08:05:14;;;;;;;2.05;1.45;;;31.40;52.30;;;30.84;32.84;99672.66;10206910;28;98722;-85
2022/06/30 08:10:17;;;;;;;1.23;1.13;;;31.60;51.40;;;31.05;31.69;99667.41;10200963;28;96507;-86
2022/06/30 08:15:20;;;;;;;2.03;1.25;;;31.80;50.70;;;31.25;31.36;99673.47;10220795;28;97581;-86
2022/06/30 08:20:23;;;;;;;3.58;1.20;;;31.90;50.00;;;31.39;30.43;99664.00;10219805;28;96616;-86
2022/06/30 08:25:28;;;;;;;2.45;1.30;;;32.10;48.90;;;31.57;30.60;99664.03;10221896;28;97110;-86
2022/06/30 08:30:31;;;;;;;2.45;1.38;;;32.20;48.70;;;31.74;30.30;99657.78;10192442;28;96765;-86
2022/06/30 08:35:34;;;;;;;1.40;1.13;;;32.40;48.50;;;31.78;29.39;99664.22;10216279;28;96937;-85
2022/06/30 08:46:23;;;;;;;4.93;1.75;;;32.60;47.50;;;32.09;28.90;99662.19;10192501;28;97331;-86
2022/06/30 08:51:29;;;;;;;1.90;1.35;;;32.70;47.20;;;32.28;28.96;99656.34;10206980;28;98379;-86
2022/06/30 08:56:35;;;;;;;2.05;1.17;;;32.90;47.10;;;32.49;28.73;99639.97;10168325;28;97444;-86
2022/06/30 09:01:38;;;;;;;2.72;1.27;;;33.10;47.10;;;32.63;29.00;99643.34;10188130;28;97718;-86
2022/06/30 09:06:45;;;;;;;1.35;1.17;;;33.30;47.10;;;32.77;27.87;99640.38;10211961;28;96639;-86
2022/06/30 09:11:55;;;;;;;1.65;1.20;;;33.40;45.70;;;32.87;28.16;99637.31;10216139;28;97475;-87
2022/06/30 09:16:59;;;;;;;3.20;1.50;;;33.60;46.00;;;33.02;27.20;99645.00;10202902;28;97947;-86
2022/06/30 09:22:10;;;;;;;2.00;1.23;;;33.70;45.40;;;33.12;27.62;99645.78;10204501;28;98069;-85
2022/06/30 09:27:19;;;;;;;2.08;1.30;;;33.80;45.60;;;33.27;27.63;99643.25;10216275;28;96772;-87
2022/06/30 09:32:26;;;;;;;1.80;1.27;;;34.00;45.70;;;33.46;27.26;99639.28;10198951;28;98025;-86
2022/06/30 09:37:29;;;;;;;1.70;1.20;;;34.10;45.30;;;33.60;25.83;99641.78;10196373;28;98507;-85
2022/06/30 09:42:42;;;;;;;2.28;1.20;;;34.30;44.50;;;33.65;25.13;99636.91;10222300;28;97486;-87
2022/06/30 09:48:00;;;;;;;1.80;1.20;;;34.40;43.40;;;33.71;25.47;99624.53;10209709;28;96935;-86
2022/06/30 09:53:13;;;;;;;3.42;1.10;;;34.50;43.10;;;33.82;25.50;99624.91;10189136;28;96658;-88
2022/06/30 09:58:35;;;;;;;1.23;0.80;;;34.50;43.20;;;33.93;25.19;99628.09;10181041;28;96697;-84
2022/06/30 10:03:59;;;;;;;1.40;0.98;;;34.60;42.70;;;34.11;23.73;99624.03;10188970;28;96962;-86
2022/06/30 10:09:03;;;;;;;2.05;1.25;;;34.80;41.80;;;34.23;24.25;99613.03;10181418;28;96696;-85
2022/06/30 10:14:10;;;;;;;1.90;1.40;;;34.90;42.10;;;34.39;24.73;99612.41;10182362;28;98664;-85
2022/06/30 10:19:13;;;;;;;1.70;1.10;;;35.10;42.20;;;34.44;24.25;99612.22;10203910;28;96757;-87
2022/06/30 10:24:18;;;;;;;1.30;1.02;;;35.20;42.10;;;34.57;23.38;99606.38;10210900;28;97631;-89
2022/06/30 10:29:21;;;;;;;1.67;1.10;;;35.30;41.70;;;34.81;23.61;99589.03;10180537;28;96904;-88
2022/06/30 10:34:35;;;;;;;2.53;1.02;;;35.50;41.40;;;34.86;22.65;99599.06;10199080;28;99279;-86
2022/06/30 10:39:54;;;;;;;4.95;1.17;;;35.60;40.70;;;34.88;23.35;99586.50;10217109;28;96757;-86
2022/06/30 10:44:57;;;;;;;1.85;1.10;;;35.60;40.80;;;35.02;23.17;99577.91;10213652;28;97643;-86
2022/06/30 10:50:34;;;;;;;3.85;0.93;;;35.70;41.10;;;35.28;22.90;99577.53;10199213;28;96678;-87
2022/06/30 10:55:47;;;;;;;1.73;1.05;;;36.00;40.90;;;35.29;23.24;99576.38;10198105;28;97701;-85
2022/06/30 11:01:02;;;;;;;1.75;1.02;;;36.10;40.70;;;35.29;22.88;99573.63;10202052;28;96679;-84
2022/06/30 11:06:10;;;;;;;2.25;1.33;;;36.00;40.40;;;35.17;22.94;99573.66;10225807;28;96751;-84
2022/06/30 11:11:25;;;;;;;1.05;0.95;;;36.00;40.00;;;35.13;22.71;99553.38;10206286;28;97267;-85
2022/06/30 11:16:37;;;;;;;2.13;1.13;;;35.80;39.90;;;35.24;22.69;99568.34;10216616;28;96605;-86
2022/06/30 11:21:44;;;;;;;0.88;0.82;;;36.00;40.10;;;35.44;21.79;99558.28;10206926;28;96754;-86
2022/06/30 11:32:11;;;;;;;1.00;0.70;;;36.30;39.10;;;35.83;21.68;99529.03;10190604;28;96965;-85
2022/06/30 11:37:21;;;;;;;0.70;0.70;;;36.50;39.30;;;35.87;21.63;99540.19;10183463;28;96649;-85
2022/06/30 11:42:27;;;;;;;1.23;1.10;;;36.60;39.00;;;35.84;21.62;99532.59;10196190;28;99300;-85
2022/06/30 11:47:30;;;;;;;1.20;0.93;;;36.50;39.20;;;35.87;21.37;99529.94;10192417;28;97631;-85
2022/06/30 11:52:38;;;;;;;1.60;0.98;;;36.60;39.10;;;36.05;21.68;99529.66;10204443;28;98936;-85
2022/06/30 11:57:45;;;;;;;1.25;1.08;;;36.70;39.20;;;36.17;21.52;99515.75;10207400;28;97254;-84
2022/06/30 12:03:12;;;;;;;1.77;1.08;;;36.90;39.10;;;36.30;21.34;99514.50;10198896;28;97062;-86
2022/06/30 12:14:39;;;;;;;3.28;2.00;;;33.50;44.00;;;32.65;27.54;99510.97;10376594;27;96791;-87
2022/06/30 12:19:45;;;;;;;4.78;1.60;;;32.90;53.60;;;33.62;24.96;99505.31;10313725;27;97931;-86
2022/06/30 12:24:49;;;;;;;5.35;1.88;;;33.90;45.00;;;34.51;23.51;99502.13;10409593;27;96678;-87
2022/06/30 12:30:10;;;;;;;5.70;1.95;;;35.00;42.00;;;35.04;22.55;99490.03;10425778;27;98325;-86
2022/06/30 12:35:13;;;;;;;3.95;1.60;;;35.70;40.20;;;35.51;21.86;99488.66;10374938;27;96638;-85
2022/06/30 12:40:26;;;;;;;3.85;1.52;;;36.30;38.90;;;36.17;20.79;99488.09;10402983;27;96657;-87
2022/06/30 12:45:58;;;;;;;3.17;1.60;;;36.90;38.20;;;36.59;20.24;99484.78;10389277;27;97458;-87
2022/06/30 12:51:02;;;;;;;2.40;1.70;;;37.50;37.90;;;36.97;20.22;99493.22;10410499;27;96674;-87
2022/06/30 12:56:23;;;;;;;5.10;1.85;;;37.90;37.60;;;37.35;19.57;99474.25;10386995;27;97568;-87
2022/06/30 13:01:42;;;;;;;2.80;1.33;;;38.30;37.10;;;37.42;18.56;99469.63;10354417;27;97170;-86
2022/06/30 13:06:48;;;;;;;3.45;1.70;;;38.40;36.30;;;37.54;18.49;99465.91;10394652;27;96528;-87
2022/06/30 13:11:56;;;;;;;5.35;1.50;;;38.60;35.80;;;37.71;18.14;99467.41;10367837;27;98955;-87
2022/06/30 13:17:00;;;;;;;3.13;1.38;;;38.70;35.50;;;37.96;18.39;99460.38;10338723;28;98281;-86
2022/06/30 13:22:05;;;;;;;4.03;1.33;;;39.00;35.70;;;37.97;18.17;99455.66;10333901;28;98650;-87
2022/06/30 13:27:12;;;;;;;2.33;1.50;;;39.10;35.30;;;37.88;18.14;99453.13;10366892;28;96679;-87
2022/06/30 13:32:15;;;;;;;5.68;1.60;;;39.00;35.10;;;37.70;16.98;99463.06;10355090;28;96612;-87
2022/06/30 13:37:18;;;;;;;5.30;1.50;;;38.80;34.00;;;37.78;17.16;99459.22;10370988;28;96902;-88
2022/06/30 13:42:21;;;;;;;3.03;1.10;;;38.80;34.00;;;37.92;16.49;99458.75;10371668;28;96595;-87
2022/06/30 13:47:24;;;;;;;3.30;1.35;;;38.90;33.80;;;38.00;16.44;99444.63;10374462;28;97213;-86
2022/06/30 13:52:27;;;;;;;3.58;1.20;;;39.00;33.40;;;37.78;16.16;99450.91;10388071;28;98672;-87
2022/06/30 13:57:30;;;;;;;2.35;1.15;;;38.90;32.90;;;37.86;16.27;99451.91;10396286;27;99003;-85
2022/06/30 14:02:33;;;;;;;6.53;1.50;;;38.80;33.20;;;37.58;16.54;99454.91;10363960;28;98476;-85
2022/06/30 14:07:36;;;;;;;6.15;1.55;;;38.70;33.30;;;37.58;16.55;99454.91;10365125;28;97153;-86
2022/06/30 14:12:40;;;;;;;3.08;1.50;;;38.70;33.40;;;37.69;16.58;99450.38;10374900;28;98563;-86
2022/06/30 14:17:43;;;;;;;4.07;1.45;;;38.70;33.50;;;37.90;16.58;99450.75;10377415;27;97244;-86
2022/06/30 14:22:47;;;;;;;3.97;1.50;;;38.90;33.60;;;37.99;16.72;99451.34;10360521;28;98770;-85
2022/06/30 14:27:50;;;;;;;4.65;1.45;;;39.00;33.80;;;37.97;16.81;99441.78;10367730;28;97585;-86
2022/06/30 14:32:56;;;;;;;3.10;1.33;;;39.00;33.60;;;38.06;16.27;99425.69;10368771;28;98119;-85
2022/06/30 14:37:59;;;;;;;4.78;1.30;;;39.00;33.20;;;37.94;16.72;99442.53;10356788;28;96936;-87
2022/06/30 14:43:03;;;;;;;2.00;1.10;;;39.00;33.30;;;37.88;16.68;99424.59;10381010;27;98782;-87
2022/06/30 14:48:06;;;;;;;3.25;1.60;;;39.00;33.70;;;37.87;17.42;99437.66;10374271;28;98363;-87
2022/06/30 14:53:09;;;;;;;5.15;1.65;;;38.90;34.10;;;37.73;18.17;99427.09;10378567;28;97417;-87
2022/06/30 14:58:12;;;;;;;3.85;1.50;;;38.70;35.00;;;37.84;17.27;99435.59;10356441;28;98870;-87
2022/06/30 15:03:15;;;;;;;2.85;1.80;;;38.90;34.20;;;37.65;17.02;99427.31;10387545;27;96792;-87
2022/06/30 15:08:18;;;;;;;4.90;1.80;;;38.80;33.80;;;37.46;18.29;99415.09;10377582;28;98862;-86
2022/06/30 15:13:22;;;;;;;3.10;1.73;;;38.50;34.60;;;37.61;18.26;99416.19;10370969;28;97347;-88
2022/06/30 15:18:25;;;;;;;2.78;1.63;;;38.60;35.20;;;37.88;18.42;99403.19;10371235;28;96684;-88
2022/06/30 15:28:49;;;;;;;7.70;2.00;;;38.90;35.90;;;38.04;19.49;99400.31;10376698;27;99168;-88
2022/06/30 15:33:52;;;;;;;2.15;1.60;;;39.00;36.30;;;38.17;19.21;99395.34;10361314;28;97389;-87
2022/06/30 15:38:56;;;;;;;6.10;1.80;;;39.10;36.40;;;38.18;18.95;99394.19;10360076;28;97724;-88
2022/06/30 15:44:03;;;;;;;4.90;2.03;;;39.10;36.00;;;38.14;18.90;99385.78;10371204;27;97641;-88
2022/06/30 15:49:09;;;;;;;5.70;2.10;;;39.10;36.30;;;38.10;19.85;99387.72;10362632;28;97064;-87
2022/06/30 15:54:12;;;;;;;4.35;2.00;;;39.10;36.60;;;38.13;19.55;99386.16;10361021;28;98304;-86
2022/06/30 15:59:15;;;;;;;4.20;1.80;;;39.10;36.60;;;38.05;20.09;99387.25;10365250;27;97301;-87
2022/06/30 16:04:18;;;;;;;5.15;1.83;;;39.00;36.90;;;37.97;19.67;99376.03;10354344;28;96590;-87
2022/06/30 16:09:22;;;;;;;3.65;2.10;;;38.90;36.90;;;37.93;21.25;99389.03;10366368;28;97373;-87
2022/06/30 16:14:26;;;;;;;7.57;2.10;;;38.80;37.70;;;37.93;21.35;99374.38;10357498;28;97696;-88
2022/06/30 16:19:29;;;;;;;4.57;2.00;;;38.90;38.30;;;37.91;21.87;99379.50;10357059;28;98201;-89
2022/06/30 16:24:33;;;;;;;4.80;2.30;;;38.90;38.50;;;37.82;22.01;99379.72;10365278;28;99067;-89
2022/06/30 16:29:36;;;;;;;5.85;2.20;;;38.80;38.70;;;37.70;22.55;99377.13;10358144;28;98616;-88
2022/06/30 16:34:39;;;;;;;4.85;2.30;;;38.70;39.20;;;37.58;23.36;99382.84;10337374;28;96850;-88
2022/06/30 16:39:42;;;;;;;7.55;2.90;;;38.60;39.80;;;37.35;24.21;99391.91;10368271;28;97541;-88
2022/06/30 16:44:45;;;;;;;5.88;2.72;;;38.30;40.60;;;37.18;25.01;99390.38;10384364;27;97515;-87
2022/06/30 16:49:48;;;;;;;5.25;2.83;;;38.10;41.20;;;37.03;25.33;99384.94;10362900;28;99606;-88
2022/06/30 16:54:51;;;;;;;6.40;2.72;;;37.90;41.90;;;36.87;25.45;99394.09;10365530;28;96669;-87
2022/06/30 16:59:55;;;;;;;7.43;2.90;;;37.70;42.00;;;36.73;25.75;99393.78;10353411;28;98445;-89
2022/06/30 17:04:58;;;;;;;6.70;3.03;;;37.60;42.40;;;36.56;26.00;99408.03;10368124;28;97356;-87
2022/06/30 17:10:02;;;;;;;9.60;3.17;;;37.40;42.70;;;36.43;27.39;99399.84;10373406;28;96693;-89
2022/06/30 17:15:07;;;;;;;4.25;2.63;;;37.30;43.50;;;36.35;27.06;99400.00;10379987;27;96804;-89
2022/06/30 17:20:10;;;;;;;15.05;5.63;;;37.30;43.80;;;36.12;27.20;99405.38;10404733;27;97404;-89
2022/06/30 17:25:13;;;;;;;6.95;3.30;;;37.10;43.90;;;35.95;27.44;99403.78;10411072;27;97781;-90
2022/06/30 17:30:17;;;;;;;8.50;2.85;;;36.90;43.90;;;35.78;27.95;99406.88;10391250;27;98884;-89
2022/06/30 17:35:20;;;;;;;9.23;3.35;;;36.70;44.10;;;35.51;28.40;99405.78;10417361;27;96788;-89
2022/06/30 17:40:23;;;;;;;10.63;3.50;;;36.50;44.40;;;35.27;28.77;99410.22;10404412;27;97853;-89
2022/06/30 17:45:26;;;;;;;6.43;3.22;;;36.30;44.50;;;35.08;29.14;99418.34;10395548;27;98712;-87
2022/06/30 17:50:29;;;;;;;9.05;3.72;;;36.10;45.20;;;34.84;29.84;99410.91;10398068;27;96805;-88
2022/06/30 17:55:35;;;;;;;8.90;3.20;;;35.80;45.70;;;34.59;29.96;99421.19;10394693;27;98994;-89
2022/06/30 18:00:38;;;;;;;5.75;3.75;;;35.50;46.30;;;34.32;30.94;99422.69;10380391;27;97711;-90
2022/06/30 18:05:44;;;;;;;5.57;3.15;;;35.30;46.60;;;34.07;31.32;99430.16;10397735;27;99215;-91
2022/06/30 18:16:10;;;;;;;10.45;3.58;;;34.80;47.00;;;33.49;31.92;99438.38;10394718;27;98582;-88
2022/06/30 18:21:14;;;;;;;10.57;3.72;;;34.50;47.40;;;33.15;32.54;99444.94;10400196;27;98201;-89
2022/06/30 18:26:18;;;;;;;63.38;8.80;;;34.20;47.80;;;32.83;33.25;99445.66;10399186;27;97196;-89
2022/06/30 18:31:21;;;;;;;6.65;3.50;;;33.90;48.40;;;32.56;33.32;99453.25;10390189;27;97951;-91
2022/06/30 18:36:24;;;;;;;11.93;3.70;;;33.60;48.60;;;32.39;33.82;99462.44;10387737;27;97708;-91
2022/06/30 18:41:27;;;;;;;9.45;3.78;;;33.30;49.10;;;32.20;34.91;99459.22;10393407;27;97654;-89
2022/06/30 18:46:33;;;;;;;6.32;3.53;;;33.20;49.70;;;32.05;35.53;99459.78;10412434;27;98492;-90
2022/06/30 18:51:37;;;;;;;11.40;4.25;;;33.00;50.20;;;31.87;36.32;99461.78;10398002;27;98188;-89
2022/06/30 18:56:40;;;;;;;8.85;3.83;;;32.90;51.00;;;31.71;37.12;99467.75;10382830;27;99237;-89
2022/06/30 19:01:43;;;;;;;9.43;4.15;;;32.60;51.80;;;31.51;37.73;99487.66;10393809;27;98306;-89
2022/06/30 19:06:47;;;;;;;8.70;4.07;;;32.40;52.40;;;31.27;38.41;99484.59;10391067;27;96897;-89
2022/06/30 19:11:50;;;;;;;11.60;4.47;;;32.10;53.20;;;31.04;39.65;99492.94;10379294;27;98613;-90
2022/06/30 19:16:55;;;;;;;10.48;4.43;;;31.90;54.00;;;30.78;40.08;99505.81;10383607;27;97571;-91
2022/06/30 19:21:58;;;;;;;9.38;4.13;;;31.60;54.70;;;30.50;40.66;99500.50;10389485;27;97451;-92
2022/06/30 19:27:21;;;;;;;7.10;4.28;;;31.30;55.30;;;30.25;41.53;99509.44;10382703;27;97951;-92
2022/06/30 19:32:26;;;;;;;8.20;4.15;;;31.10;55.90;;;30.08;41.97;99523.81;10394373;28;98071;-91
2022/06/30 19:37:29;;;;;;;12.60;4.55;;;30.90;56.30;;;29.89;42.58;99518.56;10396318;27;97627;-91
2022/06/30 19:42:33;;;;;;;8.82;4.32;;;30.70;56.70;;;29.73;42.97;99531.81;10382695;27;99059;-92
2022/06/30 19:47:37;;;;;;;6.82;4.57;;;30.60;57.20;;;29.56;43.15;99524.25;10390942;27;98448;-91
2022/06/30 19:52:40;;;;;;;8.65;4.60;;;30.40;57.50;;;29.44;43.68;99545.88;10377536;27;96666;-92
2022/06/30 19:57:43;;;;;;;7.63;4.50;;;30.30;58.00;;;29.38;43.79;99547.09;10377839;27;97381;-92
2022/06/30 20:13:30;;;;;;;10.00;3.90;;;30.10;58.20;;;29.20;44.69;99561.72;10400573;27;97212;-91
2022/06/30 20:18:33;;;;;;;5.88;3.65;;;30.10;58.40;;;29.09;44.57;99568.53;10388001;27;97320;-92
2022/06/30 20:23:36;;;;;;;12.10;4.50;;;29.90;58.70;;;29.08;44.58;99580.59;10362615;27;98626;-92
2022/06/30 20:28:41;;;;;;;12.48;4.20;;;29.90;59.00;;;29.00;45.13;99590.34;10377617;27;97767;-92
2022/06/30 20:33:44;;;;;;;8.50;4.30;;;29.90;59.30;;;28.99;45.73;99597.72;10395226;27;97172;-92
2022/06/30 20:38:48;;;;;;;10.48;3.88;;;29.90;59.50;;;28.87;46.14;99591.94;10391888;27;97871;-91
2022/06/30 20:43:51;;;;;;;9.77;4.80;;;29.90;59.80;;;28.76;46.66;99591.31;10404040;27;97056;-92
2022/06/30 20:54:22;;;;;;;9.10;3.97;;;29.70;60.60;;;28.53;47.51;99612.25;10407798;27;99587;-91
2022/06/30 20:59:25;;;;;;;9.75;4.35;;;29.60;61.10;;;28.38;48.03;99612.53;10371448;27;98812;-90
2022/06/30 21:04:28;;;;;;;8.57;4.95;;;29.40;61.40;;;28.20;48.52;99616.09;10383532;27;98416;-91
2022/06/30 21:09:31;;;;;;;7.90;4.07;;;29.30;62.10;;;28.07;48.81;99627.75;10374699;27;96972;-90
2022/06/30 21:14:36;;;;;;;7.68;4.60;;;29.20;62.40;;;27.90;49.29;99620.94;10361343;27;98821;-92
2022/06/30 21:19:39;;;;;;;6.93;4.68;;;28.90;62.60;;;27.78;50.07;99630.69;10399378;27;98528;-91
2022/06/30 21:24:42;;;;;;;8.88;4.38;;;28.80;63.40;;;27.63;49.78;99623.47;10419840;27;97087;-91
2022/06/30 21:29:45;;;;;;;7.35;3.85;;;28.70;63.20;;;27.51;49.52;99617.63;10412968;28;96917;-91
2022/06/30 21:34:48;;;;;;;9.68;4.18;;;28.60;62.90;;;27.48;49.86;99627.22;10424803;27;97337;-90
2022/06/30 21:39:54;;;;;;;9.70;4.03;;;28.60;63.10;;;27.49;49.71;99628.84;10412038;28;97954;-90
2022/06/30 21:44:57;;;;;;;5.75;3.88;;;28.50;63.30;;;27.48;50.34;99646.34;10384882;27;97333;-90
2022/06/30 21:50:01;;;;;;;10.25;4.78;;;28.50;63.50;;;27.43;50.92;99636.28;10406272;28;97549;-91
2022/06/30 21:55:05;;;;;;;7.50;3.80;;;28.40;64.00;;;27.33;50.51;99644.59;10403343;28;96642;-91
2022/06/30 22:00:12;;;;;;;9.57;4.60;;;28.40;64.10;;;27.22;51.06;99645.81;10399723;27;98416;-91